createdAt,value
2017-09-10T00:00:40.055Z,7.30
2017-09-10T00:03:41.416Z,7.20
2017-09-10T00:06:42.768Z,7.13
2017-09-10T00:09:44.121Z,6.73
2017-09-10T00:12:45.494Z,7.83
2017-09-10T00:15:47.527Z,8.30
2017-09-10T00:18:48.874Z,8.93
2017-09-10T00:21:50.499Z,9.03
2017-09-10T00:24:51.831Z,8.97
2017-09-10T00:27:53.935Z,10.27
2017-09-10T00:30:55.267Z,9.67
2017-09-10T00:33:56.710Z,9.50
2017-09-10T00:36:58.021Z,8.93
2017-09-10T00:39:59.401Z,9.63
2017-09-10T00:43:00.756Z,11.80
2017-09-10T00:46:02.127Z,13.73
2017-09-10T00:49:03.639Z,11.17
2017-09-10T00:52:05.770Z,10.90
2017-09-10T00:55:07.190Z,10.53
2017-09-10T00:58:08.563Z,11.30
2017-09-10T01:01:09.944Z,11.60
2017-09-10T01:04:11.292Z,11.27
2017-09-10T01:07:12.693Z,10.23
2017-09-10T01:10:14.091Z,11.23
2017-09-10T01:13:16.240Z,10.20
2017-09-10T01:16:17.567Z,11.87
2017-09-10T01:19:18.934Z,11.60
2017-09-10T01:22:20.320Z,11.40
2017-09-10T01:25:21.732Z,12.30
2017-09-10T01:28:23.065Z,9.57
2017-09-10T01:31:24.405Z,10.87
2017-09-10T01:34:25.705Z,11.20
2017-09-10T01:37:27.043Z,12.60
2017-09-10T01:40:29.084Z,12.30
2017-09-10T01:43:30.430Z,11.07
2017-09-10T01:46:31.873Z,11.87
2017-09-10T01:49:33.186Z,10.37
2017-09-10T01:52:34.531Z,12.10
2017-09-10T01:55:35.825Z,11.60
2017-09-10T01:58:37.143Z,11.20
2017-09-10T02:01:38.427Z,12.10
2017-09-10T02:04:39.730Z,11.33
2017-09-10T02:07:41.010Z,9.93
2017-09-10T02:10:42.286Z,11.70
2017-09-10T02:13:43.576Z,11.20
2017-09-10T02:16:44.902Z,11.23
2017-09-10T02:19:46.214Z,11.20
2017-09-10T02:22:48.252Z,9.63
2017-09-10T02:25:50.455Z,10.20
2017-09-10T02:28:51.750Z,9.37
2017-09-10T02:31:53.078Z,9.23
2017-09-10T02:34:54.387Z,9.20
2017-09-10T02:37:55.741Z,9.20
2017-09-10T02:40:57.767Z,8.10
2017-09-10T02:43:59.093Z,7.23
2017-09-10T02:47:00.394Z,7.40
2017-09-10T02:50:02.442Z,7.57
2017-09-10T02:53:03.823Z,7.60
2017-09-10T02:56:05.162Z,7.00
2017-09-10T02:59:07.340Z,7.37
2017-09-10T03:02:09.372Z,6.90
2017-09-10T03:05:10.871Z,7.60
2017-09-10T03:08:12.155Z,7.03
2017-09-10T03:11:13.480Z,6.47
2017-09-10T03:14:14.758Z,5.73
2017-09-10T03:17:16.114Z,6.40
2017-09-10T03:20:17.417Z,6.20
2017-09-10T03:23:18.727Z,6.00
2017-09-10T03:26:20.112Z,5.70
2017-09-10T03:29:21.454Z,5.63
2017-09-10T03:32:23.672Z,6.67
2017-09-10T03:35:24.982Z,7.00
2017-09-10T03:38:26.304Z,5.50
2017-09-10T03:41:27.563Z,6.13
2017-09-10T03:44:29.634Z,6.87
2017-09-10T03:47:31.653Z,6.10
2017-09-10T03:50:33.006Z,5.70
2017-09-10T03:53:34.486Z,6.27
2017-09-10T03:56:35.815Z,6.13
2017-09-10T03:59:37.927Z,6.53
2017-09-10T04:02:39.971Z,7.20
2017-09-10T04:05:42.044Z,7.27
2017-09-10T04:08:43.339Z,8.00
2017-09-10T04:11:44.664Z,8.20
2017-09-10T04:14:46.672Z,7.57
2017-09-10T04:17:47.995Z,8.70
2017-09-10T04:20:49.432Z,7.97
2017-09-10T04:23:51.516Z,7.60
2017-09-10T04:26:52.990Z,8.03
2017-09-10T04:29:54.247Z,8.40
2017-09-10T04:32:55.563Z,9.60
2017-09-10T04:35:56.846Z,9.00
2017-09-10T04:38:58.186Z,8.90
2017-09-10T04:41:59.491Z,9.00
2017-09-10T04:45:02.501Z,8.20
2017-09-10T04:48:04.599Z,8.23
2017-09-10T04:51:05.926Z,9.50
2017-09-10T04:54:07.671Z,9.70
2017-09-10T04:57:09.042Z,9.20
2017-09-10T05:00:10.367Z,8.60
2017-09-10T05:03:11.704Z,8.47
2017-09-10T05:06:13.795Z,8.80
2017-09-10T05:09:15.114Z,10.30
2017-09-10T05:12:17.170Z,9.13
2017-09-10T05:15:18.546Z,8.10
2017-09-10T05:18:20.898Z,10.37
2017-09-10T05:21:22.223Z,9.53
2017-09-10T05:24:24.315Z,8.97
2017-09-10T05:27:26.338Z,9.27
2017-09-10T05:30:27.699Z,9.60
2017-09-10T05:33:29.063Z,9.27
2017-09-10T05:36:30.433Z,9.40
2017-09-10T05:39:32.481Z,9.37
2017-09-10T05:42:34.563Z,9.80
2017-09-10T05:45:35.991Z,8.77
2017-09-10T05:48:37.302Z,8.33
2017-09-10T05:51:45.483Z,9.43
2017-09-10T05:54:47.530Z,8.73
2017-09-10T05:57:48.841Z,10.47
2017-09-10T06:00:50.121Z,9.23
2017-09-10T06:03:51.444Z,9.53
2017-09-10T06:06:52.744Z,10.13
2017-09-10T06:09:54.046Z,9.20
2017-09-10T06:12:55.301Z,8.73
2017-09-10T06:15:56.613Z,9.03
2017-09-10T06:18:57.887Z,9.80
2017-09-10T06:21:59.182Z,9.80
2017-09-10T06:25:00.477Z,10.47
2017-09-10T06:28:02.494Z,10.90
2017-09-10T06:31:04.017Z,10.90
2017-09-10T06:34:05.285Z,10.10
2017-09-10T06:37:07.320Z,10.17
2017-09-10T06:40:08.554Z,10.27
2017-09-10T06:43:09.842Z,11.43
2017-09-10T06:46:11.843Z,9.47
2017-09-10T06:49:13.103Z,10.87
2017-09-10T06:52:14.658Z,10.60
2017-09-10T06:55:15.954Z,10.97
2017-09-10T06:58:18.041Z,11.60
2017-09-10T07:01:20.053Z,9.63
2017-09-10T07:04:21.325Z,9.50
2017-09-10T07:07:22.587Z,10.43
2017-09-10T07:10:24.621Z,8.97
2017-09-10T07:13:25.882Z,8.17
2017-09-10T07:16:27.945Z,9.57
2017-09-10T07:19:29.342Z,9.70
2017-09-10T07:22:30.597Z,8.13
2017-09-10T07:25:31.885Z,8.87
2017-09-10T07:28:33.153Z,8.50
2017-09-10T07:31:34.441Z,7.90
2017-09-10T07:34:35.681Z,8.17
2017-09-10T07:37:36.942Z,7.70
2017-09-10T07:40:38.191Z,7.10
2017-09-10T07:43:39.501Z,7.50
2017-09-10T07:46:41.635Z,7.90
2017-09-10T07:49:42.870Z,6.57
2017-09-10T07:52:44.399Z,7.50
2017-09-10T07:55:45.698Z,6.67
2017-09-10T07:58:46.950Z,7.67
2017-09-10T08:01:48.217Z,7.30
2017-09-10T08:04:50.234Z,6.33
2017-09-10T08:07:51.486Z,6.00
2017-09-10T08:10:52.761Z,6.80
2017-09-10T08:13:54.046Z,5.93
2017-09-10T08:16:56.038Z,5.50
2017-09-10T08:19:57.444Z,5.93
2017-09-10T08:22:59.415Z,4.87
2017-09-10T08:26:01.454Z,5.90
2017-09-10T08:29:02.734Z,6.50
2017-09-10T08:32:04.750Z,5.90
2017-09-10T08:35:05.983Z,5.93
2017-09-10T08:38:07.289Z,5.80
2017-09-10T08:41:09.317Z,4.90
2017-09-10T08:44:10.614Z,5.87
2017-09-10T08:47:12.624Z,4.60
2017-09-10T08:50:13.894Z,5.27
2017-09-10T08:53:15.149Z,6.40
2017-09-10T08:56:16.447Z,4.80
2017-09-10T08:59:17.905Z,4.90
2017-09-10T09:02:19.155Z,4.90
2017-09-10T09:05:20.493Z,5.20
2017-09-10T09:08:21.755Z,5.30
2017-09-10T09:11:23.046Z,3.97
2017-09-10T09:14:24.357Z,4.93
2017-09-10T09:17:25.634Z,5.03
2017-09-10T09:20:26.874Z,4.27
2017-09-10T09:23:28.176Z,3.70
2017-09-10T09:26:29.410Z,4.73
2017-09-10T09:29:31.423Z,3.80
2017-09-10T09:32:32.737Z,4.10
2017-09-10T09:35:34.795Z,3.90
2017-09-10T09:38:36.802Z,4.50
2017-09-10T09:41:38.042Z,3.47
2017-09-10T09:44:39.454Z,3.47
2017-09-10T09:47:41.438Z,3.30
2017-09-10T09:50:42.746Z,3.77
2017-09-10T09:53:44.059Z,3.90
2017-09-10T09:56:45.361Z,2.83
2017-09-10T09:59:47.373Z,2.60
2017-09-10T10:02:48.661Z,2.77
2017-09-10T10:05:49.922Z,2.67
2017-09-10T10:08:51.942Z,2.60
2017-09-10T10:11:53.171Z,2.23
2017-09-10T10:14:54.463Z,2.67
2017-09-10T10:17:55.748Z,2.60
2017-09-10T10:20:57.194Z,2.07
2017-09-10T10:23:59.263Z,2.20
2017-09-10T10:27:01.313Z,2.27
2017-09-10T10:30:02.639Z,2.30
2017-09-10T10:33:04.022Z,2.00
2017-09-10T10:36:06.025Z,2.50
2017-09-10T10:39:07.294Z,2.20
2017-09-10T10:42:08.594Z,1.60
2017-09-10T10:45:10.598Z,1.90
2017-09-10T10:48:11.917Z,2.10
2017-09-10T10:51:13.218Z,1.90
2017-09-10T10:54:14.498Z,1.90
2017-09-10T10:57:16.529Z,1.70
2017-09-10T11:00:17.817Z,1.80
2017-09-10T11:03:19.131Z,1.77
2017-09-10T11:06:20.530Z,2.00
2017-09-10T11:09:21.768Z,2.90
2017-09-10T11:12:23.771Z,4.33
2017-09-10T11:15:24.998Z,2.00
2017-09-10T11:18:26.301Z,1.33
2017-09-10T11:21:27.569Z,1.67
2017-09-10T11:24:29.594Z,1.70
2017-09-10T11:27:30.826Z,2.07
2017-09-10T11:30:32.118Z,2.07
2017-09-10T11:33:33.513Z,1.40
2017-09-10T11:36:34.778Z,1.60
2017-09-10T11:39:36.070Z,1.93
2017-09-10T11:42:37.333Z,1.73
2017-09-10T11:45:39.358Z,1.30
2017-09-10T11:48:41.394Z,1.30
2017-09-10T11:51:42.656Z,1.60
2017-09-10T11:54:43.930Z,1.40
2017-09-10T11:57:45.942Z,1.70
2017-09-10T12:00:47.213Z,1.80
2017-09-10T12:03:48.467Z,1.30
2017-09-10T12:06:49.772Z,1.80
2017-09-10T12:09:51.813Z,1.50
2017-09-10T12:12:53.091Z,1.50
2017-09-10T12:15:55.067Z,1.50
2017-09-10T12:18:56.323Z,1.97
2017-09-10T12:21:57.546Z,1.43
2017-09-10T12:24:59.590Z,1.80
2017-09-10T12:28:00.843Z,1.87
2017-09-10T12:31:02.105Z,1.73
2017-09-10T12:34:04.075Z,1.70
2017-09-10T12:37:06.092Z,1.93
2017-09-10T12:40:07.469Z,1.70
2017-09-10T12:43:08.741Z,2.33
2017-09-10T12:46:10.765Z,1.10
2017-09-10T12:49:12.026Z,1.30
2017-09-10T12:52:13.282Z,1.60
2017-09-10T12:55:14.602Z,1.80
2017-09-10T12:58:15.854Z,1.73
2017-09-10T13:01:17.105Z,1.60
2017-09-10T13:04:18.394Z,1.40
2017-09-10T13:07:20.406Z,1.57
2017-09-10T13:10:21.704Z,1.77
2017-09-10T13:13:23.747Z,1.80
2017-09-10T13:16:24.982Z,1.80
2017-09-10T13:19:26.270Z,1.40
2017-09-10T13:22:28.276Z,1.30
2017-09-10T13:25:29.589Z,2.00
2017-09-10T13:28:31.586Z,2.23
2017-09-10T13:31:32.905Z,1.50
2017-09-10T13:34:34.911Z,1.70
2017-09-10T13:37:36.241Z,1.80
2017-09-10T13:40:37.661Z,1.67
2017-09-10T13:43:39.662Z,1.50
2017-09-10T13:46:41.085Z,2.10
2017-09-10T13:49:43.085Z,1.53
2017-09-10T13:52:44.400Z,2.13
2017-09-10T13:55:46.454Z,1.57
2017-09-10T13:58:48.504Z,2.30
2017-09-10T14:01:49.791Z,2.03
2017-09-10T14:04:51.795Z,1.73
2017-09-10T14:07:53.074Z,1.63
2017-09-10T14:10:54.371Z,1.50
2017-09-10T14:13:55.651Z,2.40
2017-09-10T14:16:56.921Z,1.67
2017-09-10T14:19:58.221Z,1.20
2017-09-10T14:22:59.551Z,1.57
2017-09-10T14:26:01.035Z,1.50
2017-09-10T14:29:02.330Z,1.27
2017-09-10T14:32:04.383Z,1.10
2017-09-10T14:35:05.675Z,1.50
2017-09-10T14:38:07.021Z,1.50
2017-09-10T14:41:08.309Z,1.30
2017-09-10T14:44:09.650Z,1.43
2017-09-10T14:47:10.938Z,1.20
2017-09-10T14:50:12.998Z,1.50
2017-09-10T14:53:14.311Z,1.10
2017-09-10T14:56:15.670Z,1.70
2017-09-10T14:59:17.057Z,1.90
2017-09-10T15:02:18.378Z,1.57
2017-09-10T15:05:19.816Z,1.30
2017-09-10T15:08:21.131Z,1.30
2017-09-10T15:11:22.482Z,1.67
2017-09-10T15:14:24.574Z,1.53
2017-09-10T15:17:25.882Z,1.40
2017-09-10T15:20:27.915Z,1.50
2017-09-10T15:23:29.194Z,1.63
2017-09-10T15:26:31.231Z,1.50
2017-09-10T15:29:32.539Z,2.27
2017-09-10T15:32:33.844Z,1.80
2017-09-10T15:35:35.144Z,1.70
2017-09-10T15:38:36.395Z,1.60
2017-09-10T15:41:37.647Z,1.90
2017-09-10T15:44:38.930Z,1.80
2017-09-10T15:47:40.199Z,2.07
2017-09-10T15:50:42.623Z,2.00
2017-09-10T15:53:43.921Z,1.73
2017-09-10T15:56:45.226Z,1.67
2017-09-10T15:59:46.535Z,1.77
2017-09-10T16:02:48.589Z,1.93
2017-09-10T16:05:50.574Z,1.70
2017-09-10T16:08:51.874Z,2.10
2017-09-10T16:11:53.095Z,1.93
2017-09-10T16:14:54.382Z,2.07
2017-09-10T16:17:55.846Z,1.70
2017-09-10T16:20:57.110Z,1.80
2017-09-10T16:23:59.142Z,2.00
2017-09-10T16:27:00.394Z,1.80
2017-09-10T16:30:01.691Z,1.80
2017-09-10T16:33:02.951Z,1.77
2017-09-10T16:36:04.245Z,2.00
2017-09-10T16:39:05.803Z,1.60
2017-09-10T16:42:07.087Z,1.47
2017-09-10T16:45:08.399Z,1.83
2017-09-10T16:48:09.669Z,1.97
2017-09-10T16:51:11.699Z,2.20
2017-09-10T16:54:12.954Z,1.83
2017-09-10T16:57:14.274Z,1.90
2017-09-10T17:00:15.561Z,2.30
2017-09-10T17:03:16.838Z,1.60
2017-09-10T17:06:18.869Z,1.57
2017-09-10T17:09:20.137Z,1.30
2017-09-10T17:12:22.163Z,1.87
2017-09-10T17:15:23.434Z,1.77
2017-09-10T17:18:24.706Z,2.27
2017-09-10T17:21:26.785Z,1.30
2017-09-10T17:24:28.815Z,1.60
2017-09-10T17:27:30.043Z,1.60
2017-09-10T17:30:31.348Z,1.87
2017-09-10T17:33:32.618Z,1.53
2017-09-10T17:36:33.913Z,1.73
2017-09-10T17:39:35.158Z,1.50
2017-09-10T17:42:36.391Z,1.60
2017-09-10T17:45:37.662Z,1.30
2017-09-10T17:48:39.671Z,1.80
2017-09-10T17:51:40.979Z,1.30
2017-09-10T17:54:43.035Z,1.40
2017-09-10T17:57:44.434Z,1.53
2017-09-10T18:00:45.786Z,1.40
2017-09-10T18:03:47.089Z,1.80
2017-09-10T18:06:48.354Z,1.87
2017-09-10T18:09:50.401Z,1.40
2017-09-10T18:12:51.687Z,2.10
2017-09-10T18:15:52.963Z,2.30
2017-09-10T18:18:54.285Z,1.70
2017-09-10T18:21:55.623Z,1.83
2017-09-10T18:24:56.986Z,1.70
2017-09-10T18:27:58.308Z,1.67
2017-09-10T18:31:00.422Z,2.00
2017-09-10T18:34:01.736Z,1.60
2017-09-10T18:37:03.775Z,2.00
2017-09-10T18:40:05.079Z,1.60
2017-09-10T18:43:06.407Z,1.40
2017-09-10T18:46:08.435Z,1.40
2017-09-10T18:49:09.748Z,1.60
2017-09-10T18:52:11.165Z,1.30
2017-09-10T18:55:13.177Z,2.20
2017-09-10T18:58:21.582Z,1.23
2017-09-10T19:01:22.900Z,1.87
2017-09-10T19:04:31.982Z,1.57
2017-09-10T19:07:40.360Z,1.30
2017-09-10T19:10:41.675Z,1.50
2017-09-10T19:13:43.083Z,2.07
2017-09-10T19:16:44.372Z,1.50
2017-09-10T19:19:45.695Z,1.37
2017-09-10T19:22:47.002Z,1.97
2017-09-10T19:25:49.035Z,1.77
2017-09-10T19:28:50.338Z,1.73
2017-09-10T19:31:51.644Z,1.47
2017-09-10T19:34:53.725Z,1.33
2017-09-10T19:37:55.803Z,1.33
2017-09-10T19:40:57.222Z,1.97
2017-09-10T19:43:58.491Z,1.30
2017-09-10T19:47:00.558Z,1.83
2017-09-10T19:50:02.555Z,1.80
2017-09-10T19:53:03.842Z,1.80
2017-09-10T19:56:05.128Z,2.20
2017-09-10T19:59:07.155Z,1.10
2017-09-10T20:02:09.175Z,1.20
2017-09-10T20:05:10.501Z,1.63
2017-09-10T20:08:12.502Z,1.80
2017-09-10T20:11:13.794Z,1.80
2017-09-10T20:14:15.082Z,1.97
2017-09-10T20:17:16.424Z,1.40
2017-09-10T20:20:17.738Z,1.77
2017-09-10T20:23:19.049Z,1.50
2017-09-10T20:26:20.323Z,1.50
2017-09-10T20:29:21.613Z,1.63
2017-09-10T20:32:22.855Z,1.20
2017-09-10T20:35:24.902Z,1.30
2017-09-10T20:38:26.338Z,1.57
2017-09-10T20:41:27.610Z,1.33
2017-09-10T20:44:29.831Z,1.37
2017-09-10T20:47:31.096Z,1.47
2017-09-10T20:50:32.566Z,1.40
2017-09-10T20:53:33.841Z,1.43
2017-09-10T20:56:35.846Z,1.27
2017-09-10T20:59:37.142Z,2.17
2017-09-10T21:02:38.540Z,1.13
2017-09-10T21:05:39.794Z,1.50
2017-09-10T21:08:41.062Z,1.50
2017-09-10T21:11:42.379Z,1.80
2017-09-10T21:14:43.643Z,1.87
2017-09-10T21:17:44.922Z,1.97
2017-09-10T21:20:46.198Z,2.70
2017-09-10T21:23:48.212Z,1.57
2017-09-10T21:26:49.518Z,1.53
2017-09-10T21:29:51.734Z,1.57
2017-09-10T21:32:53.018Z,1.30
2017-09-10T21:35:54.337Z,1.20
2017-09-10T21:38:55.571Z,1.20
2017-09-10T21:41:56.821Z,1.13
2017-09-10T21:44:58.146Z,1.03
2017-09-10T21:47:59.431Z,1.00
2017-09-10T21:51:00.706Z,1.30
2017-09-10T21:54:01.986Z,1.77
2017-09-10T21:57:04.204Z,1.10
2017-09-10T22:00:05.493Z,1.10
2017-09-10T22:03:07.542Z,1.53
2017-09-10T22:06:08.866Z,1.30
2017-09-10T22:09:10.127Z,1.10
2017-09-10T22:12:11.418Z,1.40
2017-09-10T22:15:13.473Z,1.17
2017-09-10T22:18:15.498Z,1.37
2017-09-10T22:21:16.930Z,1.50
2017-09-10T22:24:18.178Z,0.93
2017-09-10T22:27:19.458Z,1.20
2017-09-10T22:30:20.714Z,1.43
2017-09-10T22:33:51.530Z,1.40
2017-09-10T22:36:52.770Z,1.53
2017-09-10T22:39:54.070Z,1.17
2017-09-10T22:42:56.099Z,1.77
2017-09-10T22:45:57.409Z,1.47
2017-09-10T22:48:58.727Z,1.33
2017-09-10T22:52:00.014Z,1.30
2017-09-10T22:55:01.246Z,2.20
2017-09-10T22:58:02.550Z,1.27
2017-09-10T23:01:03.976Z,1.40
2017-09-10T23:04:05.218Z,1.40
2017-09-10T23:07:06.522Z,1.60
2017-09-10T23:10:08.533Z,1.50
2017-09-10T23:13:10.163Z,1.30
2017-09-10T23:16:12.167Z,1.30
2017-09-10T23:19:13.438Z,1.30
2017-09-10T23:22:15.647Z,1.13
2017-09-10T23:25:17.639Z,1.20
2017-09-10T23:28:18.893Z,1.60
2017-09-10T23:31:20.154Z,1.70
2017-09-10T23:34:21.387Z,1.30
2017-09-10T23:37:22.677Z,3.90
2017-09-10T23:40:23.981Z,1.10
2017-09-10T23:43:25.267Z,1.57
2017-09-10T23:46:27.256Z,1.40
2017-09-10T23:49:28.550Z,1.27
2017-09-10T23:52:29.942Z,1.40
2017-09-10T23:55:31.238Z,1.80
2017-09-10T23:58:32.538Z,1.43
